createdAt,value
2018-03-20T00:00:15.113Z,1014.61
2018-03-20T00:01:23.938Z,1014.57
2018-03-20T00:02:33.346Z,1014.54
2018-03-20T00:03:42.169Z,1014.55
2018-03-20T00:04:50.995Z,1014.51
2018-03-20T00:05:59.823Z,1014.57
2018-03-20T00:07:08.648Z,1014.51
2018-03-20T00:08:17.683Z,1014.47
2018-03-20T00:09:26.787Z,1014.49
2018-03-20T00:10:35.613Z,1014.46
2018-03-20T00:11:44.436Z,1014.44
2018-03-20T00:12:53.263Z,1014.44
2018-03-20T00:14:02.689Z,1014.43
2018-03-20T00:15:11.788Z,1014.46
2018-03-20T00:16:20.613Z,1014.44
2018-03-20T00:17:29.440Z,1014.44
2018-03-20T00:18:38.545Z,1014.45
2018-03-20T00:19:47.521Z,1014.4
2018-03-20T00:20:56.348Z,1014.42
2018-03-20T00:22:05.174Z,1014.39
2018-03-20T00:23:14.005Z,1014.39
2018-03-20T00:24:22.833Z,1014.37
2018-03-20T00:25:31.709Z,1014.42
2018-03-20T00:26:40.532Z,1014.34
2018-03-20T00:27:49.358Z,1014.34
2018-03-20T00:28:58.185Z,1014.3
2018-03-20T00:30:07.294Z,1014.26
2018-03-20T00:31:16.220Z,1014.27
2018-03-20T00:32:25.046Z,1014.24
2018-03-20T00:33:33.874Z,1014.21
2018-03-20T00:34:42.698Z,1014.21
2018-03-20T00:35:51.801Z,1014.17
2018-03-20T00:37:00.927Z,1014.1
2018-03-20T00:38:09.753Z,1014.1
2018-03-20T00:39:18.579Z,1014.09
2018-03-20T00:40:27.404Z,1014.14
2018-03-20T00:41:36.230Z,1014.17
2018-03-20T00:42:45.159Z,1014.12
2018-03-20T00:43:53.987Z,1014.09
2018-03-20T00:45:03.134Z,1014.08
2018-03-20T00:46:11.961Z,1014.07
2018-03-20T00:47:20.789Z,1014.13
2018-03-20T00:48:29.864Z,1014.12
2018-03-20T00:49:38.970Z,1014.06
2018-03-20T00:50:47.794Z,1014.07
2018-03-20T00:51:56.619Z,1014.03
2018-03-20T00:53:05.477Z,1014.01
2018-03-20T00:54:14.323Z,1014.05
2018-03-20T00:55:23.441Z,1014.07
2018-03-20T00:56:32.269Z,1014.08
2018-03-20T00:57:41.091Z,1014
2018-03-20T00:58:49.917Z,1014.01
2018-03-20T00:59:58.791Z,1014.01
2018-03-20T01:01:07.618Z,1014.04
2018-03-20T01:02:16.443Z,1014
2018-03-20T01:03:25.266Z,1013.98
2018-03-20T01:04:34.195Z,1014.01
2018-03-20T01:05:43.324Z,1013.97
2018-03-20T01:06:52.154Z,1013.97
2018-03-20T01:08:01.254Z,1014
2018-03-20T01:09:10.083Z,1013.91
2018-03-20T01:10:18.910Z,1013.95
2018-03-20T01:11:28.212Z,1013.93
2018-03-20T01:12:37.036Z,1013.91
2018-03-20T01:13:45.864Z,1013.9
2018-03-20T01:14:54.691Z,1013.9
2018-03-20T01:16:03.515Z,1013.89
2018-03-20T01:17:12.626Z,1013.86
2018-03-20T01:18:21.449Z,1013.86
2018-03-20T01:19:30.276Z,1013.85
2018-03-20T01:20:39.110Z,1013.83
2018-03-20T01:21:48.211Z,1013.79
2018-03-20T01:22:57.139Z,1013.84
2018-03-20T01:24:05.967Z,1013.81
2018-03-20T01:25:14.818Z,1013.8
2018-03-20T01:26:23.621Z,1013.8
2018-03-20T01:27:32.450Z,1013.79
2018-03-20T01:28:41.602Z,1013.74
2018-03-20T01:29:50.703Z,1013.76
2018-03-20T01:30:59.540Z,1013.74
2018-03-20T01:32:08.364Z,1013.71
2018-03-20T01:33:17.470Z,1013.69
2018-03-20T01:34:26.298Z,1013.7
2018-03-20T01:35:35.124Z,1013.69
2018-03-20T01:36:43.952Z,1013.65
2018-03-20T01:37:52.777Z,1013.69
2018-03-20T01:39:01.604Z,1013.65
2018-03-20T01:40:10.429Z,1013.64
2018-03-20T01:41:19.257Z,1013.62
2018-03-20T01:42:28.086Z,1013.58
2018-03-20T01:43:36.909Z,1013.59
2018-03-20T01:44:45.735Z,1013.58
2018-03-20T01:45:54.713Z,1013.58
2018-03-20T01:47:03.536Z,1013.57
2018-03-20T01:48:12.361Z,1013.53
2018-03-20T01:49:21.187Z,1013.52
2018-03-20T01:50:30.014Z,1013.49
2018-03-20T01:51:38.890Z,1013.5
2018-03-20T01:52:47.713Z,1013.44
2018-03-20T01:53:56.538Z,1013.44
2018-03-20T01:55:05.366Z,1013.44
2018-03-20T01:56:14.196Z,1013.4
2018-03-20T01:57:23.122Z,1013.38
2018-03-20T01:58:31.946Z,1013.41
2018-03-20T01:59:40.775Z,1013.38
2018-03-20T02:00:49.602Z,1013.38
2018-03-20T02:01:58.431Z,1013.32
2018-03-20T02:03:07.309Z,1013.32
2018-03-20T02:04:16.140Z,1013.3
2018-03-20T02:05:24.967Z,1013.27
2018-03-20T02:06:33.794Z,1013.24
2018-03-20T02:07:42.620Z,1013.29
2018-03-20T02:08:51.601Z,1013.32
2018-03-20T02:10:00.427Z,1013.29
2018-03-20T02:11:09.254Z,1013.26
2018-03-20T02:12:18.359Z,1013.28
2018-03-20T02:13:27.186Z,1013.21
2018-03-20T02:14:36.341Z,1013.26
2018-03-20T02:15:45.165Z,1013.2
2018-03-20T02:16:53.993Z,1013.27
2018-03-20T02:18:02.819Z,1013.19
2018-03-20T02:19:11.648Z,1013.2
2018-03-20T02:20:20.519Z,1013.17
2018-03-20T02:21:29.346Z,1013.15
2018-03-20T02:22:38.172Z,1013.15
2018-03-20T02:23:46.999Z,1013.13
2018-03-20T02:24:55.827Z,1013.08
2018-03-20T02:26:04.704Z,1013.03
2018-03-20T02:27:13.531Z,1013.02
2018-03-20T02:28:22.358Z,1013.05
2018-03-20T02:29:31.184Z,1013.06
2018-03-20T02:30:40.019Z,1013.05
2018-03-20T02:31:48.894Z,1013.04
2018-03-20T02:32:57.719Z,1013.08
2018-03-20T02:34:06.546Z,1013.04
2018-03-20T02:35:15.385Z,1013.07
2018-03-20T02:36:24.209Z,1013.1
2018-03-20T02:37:33.287Z,1013.03
2018-03-20T02:38:42.110Z,1013.02
2018-03-20T02:39:50.950Z,1012.99
2018-03-20T02:41:00.054Z,1012.93
2018-03-20T02:42:09.161Z,1012.93
2018-03-20T02:43:18.287Z,1012.96
2018-03-20T02:44:27.398Z,1012.98
2018-03-20T02:45:36.224Z,1012.97
2018-03-20T02:46:45.051Z,1012.94
2018-03-20T02:47:54.152Z,1012.95
2018-03-20T02:49:03.521Z,1013.01
2018-03-20T02:50:12.627Z,1012.98
2018-03-20T02:51:21.456Z,1012.96
2018-03-20T02:52:30.281Z,1012.99
2018-03-20T02:53:39.113Z,1013.01
2018-03-20T02:54:48.238Z,1013.02
2018-03-20T02:55:57.067Z,1012.98
2018-03-20T02:57:05.894Z,1012.94
2018-03-20T02:58:14.721Z,1012.95
2018-03-20T02:59:23.546Z,1012.97
2018-03-20T03:00:32.376Z,1012.99
2018-03-20T03:01:41.484Z,1012.98
2018-03-20T03:02:50.594Z,1012.96
2018-03-20T03:03:59.419Z,1013.01
2018-03-20T03:05:08.253Z,1013.02
2018-03-20T03:06:17.082Z,1013.01
2018-03-20T03:07:25.909Z,1012.98
2018-03-20T03:08:34.736Z,1012.98
2018-03-20T03:09:43.563Z,1012.95
2018-03-20T03:10:52.391Z,1012.93
2018-03-20T03:12:01.518Z,1012.89
2018-03-20T03:13:10.343Z,1012.97
2018-03-20T03:14:19.171Z,1012.93
2018-03-20T03:15:27.998Z,1012.9
2018-03-20T03:16:36.827Z,1012.87
2018-03-20T03:17:45.801Z,1012.87
2018-03-20T03:18:54.627Z,1012.91
2018-03-20T03:20:03.454Z,1012.84
2018-03-20T03:21:12.282Z,1012.85
2018-03-20T03:22:21.107Z,1012.81
2018-03-20T03:23:30.083Z,1012.81
2018-03-20T03:24:38.910Z,1012.78
2018-03-20T03:25:47.737Z,1012.82
2018-03-20T03:26:56.564Z,1012.78
2018-03-20T03:28:05.391Z,1012.82
2018-03-20T03:29:14.562Z,1012.85
2018-03-20T03:30:23.392Z,1012.81
2018-03-20T03:31:32.505Z,1012.86
2018-03-20T03:32:41.606Z,1012.88
2018-03-20T03:33:50.435Z,1012.88
2018-03-20T03:34:59.412Z,1012.85
2018-03-20T03:36:08.244Z,1012.91
2018-03-20T03:37:17.069Z,1012.93
2018-03-20T03:38:25.894Z,1012.9
2018-03-20T03:39:34.728Z,1012.92
2018-03-20T03:40:43.850Z,1012.89
2018-03-20T03:41:52.677Z,1012.89
2018-03-20T03:43:01.504Z,1012.91
2018-03-20T03:44:10.329Z,1012.96
2018-03-20T03:45:19.158Z,1012.89
2018-03-20T03:46:28.085Z,1012.93
2018-03-20T03:47:36.913Z,1012.93
2018-03-20T03:48:45.740Z,1012.96
2018-03-20T03:49:54.568Z,1013.03
2018-03-20T03:51:03.396Z,1012.99
2018-03-20T03:52:12.272Z,1012.97
2018-03-20T03:53:21.099Z,1012.98
2018-03-20T03:54:29.927Z,1012.97
2018-03-20T03:55:38.752Z,1012.99
2018-03-20T03:56:47.581Z,1012.95
2018-03-20T03:57:56.407Z,1012.96
2018-03-20T03:59:05.340Z,1012.96
2018-03-20T04:00:14.443Z,1012.95
2018-03-20T04:01:23.308Z,1012.94
2018-03-20T04:02:32.097Z,1012.98
2018-03-20T04:03:41.080Z,1012.95
2018-03-20T04:04:49.907Z,1012.98
2018-03-20T04:05:58.734Z,1012.98
2018-03-20T04:07:07.841Z,1012.94
2018-03-20T04:08:16.944Z,1012.94
2018-03-20T04:09:25.796Z,1012.99
2018-03-20T04:10:34.601Z,1013.02
2018-03-20T04:11:43.428Z,1013.03
2018-03-20T04:12:52.257Z,1013.04
2018-03-20T04:14:01.082Z,1013.07
2018-03-20T04:15:09.909Z,1013
2018-03-20T04:16:18.735Z,1013.04
2018-03-20T04:17:27.559Z,1013.05
2018-03-20T04:18:36.391Z,1013.06
2018-03-20T04:19:45.216Z,1013.07
2018-03-20T04:20:54.374Z,1013.02
2018-03-20T04:22:03.201Z,1013.07
2018-03-20T04:23:12.032Z,1013.03
2018-03-20T04:24:20.858Z,1012.97
2018-03-20T04:25:29.961Z,1012.96
2018-03-20T04:26:38.836Z,1012.96
2018-03-20T04:27:47.666Z,1013.04
2018-03-20T04:28:56.493Z,1013.03
2018-03-20T04:30:05.320Z,1013.02
2018-03-20T04:31:14.153Z,1013.03
2018-03-20T04:32:23.559Z,1013.09
2018-03-20T04:33:32.386Z,1013.08
2018-03-20T04:34:41.213Z,1013.04
2018-03-20T04:35:50.043Z,1013.1
2018-03-20T04:36:58.868Z,1013.14
2018-03-20T04:38:07.845Z,1013.14
2018-03-20T04:39:16.673Z,1013.17
2018-03-20T04:40:25.501Z,1013.32
2018-03-20T04:41:34.602Z,1013.24
2018-03-20T04:42:43.428Z,1013.22
2018-03-20T04:43:52.578Z,1013.3
2018-03-20T04:45:01.407Z,1013.27
2018-03-20T04:46:10.233Z,1013.32
2018-03-20T04:47:19.060Z,1013.38
2018-03-20T04:48:27.887Z,1013.37
2018-03-20T04:49:37.017Z,1013.38
2018-03-20T04:50:45.845Z,1013.4
2018-03-20T04:51:54.672Z,1013.41
2018-03-20T04:53:03.500Z,1013.49
2018-03-20T04:54:12.333Z,1013.47
2018-03-20T04:55:21.493Z,1013.47
2018-03-20T04:56:30.319Z,1013.52
2018-03-20T04:57:39.149Z,1013.51
2018-03-20T04:58:47.979Z,1013.47
2018-03-20T04:59:56.806Z,1013.56
2018-03-20T05:01:05.684Z,1013.61
2018-03-20T05:02:14.516Z,1013.56
2018-03-20T05:03:23.338Z,1013.55
2018-03-20T05:04:32.165Z,1013.59
2018-03-20T05:05:41.276Z,1013.59
2018-03-20T05:06:50.665Z,1013.58
2018-03-20T05:07:59.491Z,1013.68
2018-03-20T05:09:08.319Z,1013.66
2018-03-20T05:10:17.149Z,1013.74
2018-03-20T05:11:25.976Z,1013.7
2018-03-20T05:12:34.805Z,1013.71
2018-03-20T05:13:43.631Z,1013.73
2018-03-20T05:14:52.457Z,1013.82
2018-03-20T05:16:01.287Z,1013.84
2018-03-20T05:17:10.397Z,1013.86
2018-03-20T05:18:19.382Z,1013.9
2018-03-20T05:19:28.212Z,1013.93
2018-03-20T05:20:37.040Z,1013.99
2018-03-20T05:21:45.868Z,1013.97
2018-03-20T05:22:54.695Z,1014.07
2018-03-20T05:24:03.623Z,1014.01
2018-03-20T05:25:12.454Z,1014.05
2018-03-20T05:26:21.282Z,1013.98
2018-03-20T05:27:30.110Z,1014.06
2018-03-20T05:28:38.937Z,1014.09
2018-03-20T05:29:47.966Z,1014.13
2018-03-20T05:30:56.798Z,1014.17
2018-03-20T05:32:05.622Z,1014.2
2018-03-20T05:33:14.729Z,1014.19
2018-03-20T05:34:23.557Z,1014.29
2018-03-20T05:35:32.818Z,1014.18
2018-03-20T05:36:41.646Z,1014.29
2018-03-20T05:37:50.478Z,1014.36
2018-03-20T05:38:59.611Z,1014.31
2018-03-20T05:40:08.411Z,1014.45
2018-03-20T05:41:17.397Z,1014.43
2018-03-20T05:42:26.222Z,1014.44
2018-03-20T05:43:35.049Z,1014.49
2018-03-20T05:44:43.879Z,1014.52
2018-03-20T05:45:52.708Z,1014.53
2018-03-20T05:47:01.636Z,1014.57
2018-03-20T05:48:10.462Z,1014.57
2018-03-20T05:49:19.292Z,1014.65
2018-03-20T05:50:28.123Z,1014.62
2018-03-20T05:51:36.951Z,1014.69
2018-03-20T05:52:46.080Z,1014.71
2018-03-20T05:53:54.910Z,1014.77
2018-03-20T05:55:03.736Z,1014.82
2018-03-20T05:56:12.562Z,1014.89
2018-03-20T05:57:21.388Z,1014.92
2018-03-20T05:58:30.790Z,1014.92
2018-03-20T05:59:39.617Z,1014.99
2018-03-20T06:00:48.446Z,1014.99
2018-03-20T06:01:57.272Z,1015
2018-03-20T06:03:06.099Z,1015
2018-03-20T06:04:14.984Z,1015.03
2018-03-20T06:05:23.808Z,1015.07
2018-03-20T06:06:32.636Z,1015.09
2018-03-20T06:07:41.464Z,1015.12
2018-03-20T06:08:50.295Z,1015.18
2018-03-20T06:09:59.225Z,1015.21
2018-03-20T06:11:08.056Z,1015.25
2018-03-20T06:12:17.162Z,1015.31
2018-03-20T06:13:25.987Z,1015.29
2018-03-20T06:14:34.818Z,1015.25
2018-03-20T06:15:43.648Z,1015.3
2018-03-20T06:16:52.758Z,1015.37
2018-03-20T06:18:01.587Z,1015.38
2018-03-20T06:19:10.416Z,1015.45
2018-03-20T06:20:19.251Z,1015.46
2018-03-20T06:21:28.278Z,1015.46
2018-03-20T06:22:37.109Z,1015.48
2018-03-20T06:23:46.213Z,1015.58
2018-03-20T06:24:55.039Z,1015.57
2018-03-20T06:26:04.145Z,1015.61
2018-03-20T06:27:13.374Z,1015.61
2018-03-20T06:28:22.527Z,1015.68
2018-03-20T06:29:31.317Z,1015.69
2018-03-20T06:30:40.145Z,1015.65
2018-03-20T06:31:48.976Z,1015.74
2018-03-20T06:32:57.958Z,1015.73
2018-03-20T06:34:07.341Z,1015.82
2018-03-20T06:35:16.172Z,1015.88
2018-03-20T06:36:24.999Z,1015.9
2018-03-20T06:37:33.826Z,1015.87
2018-03-20T06:38:42.707Z,1015.9
2018-03-20T06:39:51.531Z,1015.89
2018-03-20T06:41:00.357Z,1015.94
2018-03-20T06:42:09.186Z,1016
2018-03-20T06:43:18.016Z,1015.99
2018-03-20T06:44:26.998Z,1016.04
2018-03-20T06:45:35.847Z,1016.05
2018-03-20T06:46:44.652Z,1016.1
2018-03-20T06:47:53.481Z,1016.09
2018-03-20T06:49:02.871Z,1016.07
2018-03-20T06:50:11.702Z,1016.17
2018-03-20T06:51:20.806Z,1016.17
2018-03-20T06:52:29.633Z,1016.13
2018-03-20T06:53:38.737Z,1016.23
2018-03-20T06:54:47.845Z,1016.19
2018-03-20T06:55:56.723Z,1016.22
2018-03-20T06:57:05.552Z,1016.27
2018-03-20T06:58:14.660Z,1016.34
2018-03-20T06:59:23.513Z,1016.32
2018-03-20T07:00:32.320Z,1016.38
2018-03-20T07:01:41.153Z,1016.33
2018-03-20T07:02:50.388Z,1016.38
2018-03-20T07:03:59.218Z,1016.39
2018-03-20T07:05:08.050Z,1016.35
2018-03-20T07:06:16.888Z,1016.41
2018-03-20T07:07:25.983Z,1016.42
2018-03-20T07:08:34.811Z,1016.45
2018-03-20T07:09:43.641Z,1016.46
2018-03-20T07:10:52.472Z,1016.47
2018-03-20T07:12:01.303Z,1016.51
2018-03-20T07:13:10.132Z,1016.55
2018-03-20T07:14:18.967Z,1016.58
2018-03-20T07:15:27.798Z,1016.62
2018-03-20T07:16:36.623Z,1016.65
2018-03-20T07:17:45.454Z,1016.66
2018-03-20T07:18:54.293Z,1016.63
2018-03-20T07:20:03.115Z,1016.67
2018-03-20T07:21:11.947Z,1016.69
2018-03-20T07:22:20.773Z,1016.71
2018-03-20T07:23:29.604Z,1016.75
2018-03-20T07:24:38.434Z,1016.68
2018-03-20T07:25:47.264Z,1016.74
2018-03-20T07:26:56.371Z,1016.69
2018-03-20T07:28:05.201Z,1016.78
2018-03-20T07:29:14.031Z,1016.75
2018-03-20T07:30:22.858Z,1016.78
2018-03-20T07:31:31.791Z,1016.8
2018-03-20T07:32:40.623Z,1016.8
2018-03-20T07:33:49.728Z,1016.84
2018-03-20T07:34:58.557Z,1016.86
2018-03-20T07:36:07.390Z,1016.93
2018-03-20T07:37:16.547Z,1016.86
2018-03-20T07:38:25.650Z,1016.92
2018-03-20T07:39:34.482Z,1017.02
2018-03-20T07:40:43.308Z,1016.98
2018-03-20T07:41:52.141Z,1017
2018-03-20T07:43:01.394Z,1016.99
2018-03-20T07:44:10.227Z,1017.02
2018-03-20T07:45:19.052Z,1016.97
2018-03-20T07:46:27.884Z,1017.03
2018-03-20T07:47:36.716Z,1017.07
2018-03-20T07:48:45.546Z,1017.01
2018-03-20T07:49:54.393Z,1017.16
2018-03-20T07:51:03.502Z,1017.16
2018-03-20T07:52:12.398Z,1017.14
2018-03-20T07:53:21.537Z,1017.16
2018-03-20T07:54:30.534Z,1017.16
2018-03-20T07:55:39.364Z,1017.18
2018-03-20T07:56:48.196Z,1017.19
2018-03-20T07:57:57.024Z,1017.14
2018-03-20T07:59:05.853Z,1017.19
2018-03-20T17:49:54.478Z,1024.96
2018-03-20T17:51:03.382Z,1024.95
2018-03-20T17:52:18.488Z,1024.94
2018-03-20T17:53:27.679Z,1024.96
2018-03-20T17:54:36.874Z,1025.01
2018-03-20T17:55:45.811Z,1025.01
2018-03-20T17:56:54.649Z,1025.04
2018-03-20T17:58:03.789Z,1025.05
2018-03-20T17:59:12.686Z,1025.02
2018-03-20T18:00:21.524Z,1025.03
2018-03-20T18:01:30.355Z,1025.08
2018-03-20T18:02:39.190Z,1025.04
2018-03-20T18:03:48.300Z,1025.05
2018-03-20T18:04:57.414Z,1025.06
2018-03-20T18:06:06.245Z,1025.08
2018-03-20T18:07:15.078Z,1025.09
2018-03-20T18:08:23.909Z,1025.07
2018-03-20T18:09:32.742Z,1025.16
2018-03-20T18:10:41.576Z,1025.15
2018-03-20T18:11:50.422Z,1025.2
2018-03-20T18:12:59.245Z,1025.14
2018-03-20T18:14:08.076Z,1025.18
2018-03-20T18:15:16.908Z,1025.22
2018-03-20T18:16:25.747Z,1025.26
2018-03-20T18:17:35.066Z,1025.32
2018-03-20T18:18:43.903Z,1025.28
2018-03-20T18:19:52.834Z,1025.33
2018-03-20T18:21:01.667Z,1025.34
2018-03-20T18:22:10.499Z,1025.35
2018-03-20T18:23:19.617Z,1025.36
2018-03-20T18:24:28.444Z,1025.37
2018-03-20T18:25:37.279Z,1025.4
2018-03-20T18:26:46.112Z,1025.35
2018-03-20T18:27:54.944Z,1025.44
2018-03-20T18:29:03.776Z,1025.46
2018-03-20T18:30:12.609Z,1025.44
2018-03-20T18:31:21.445Z,1025.46
2018-03-20T18:32:30.282Z,1025.5
2018-03-20T18:33:39.111Z,1025.52
2018-03-20T18:34:47.943Z,1025.58
2018-03-20T18:35:56.776Z,1025.61
2018-03-20T18:37:05.610Z,1025.6
2018-03-20T18:38:14.441Z,1025.64
2018-03-20T18:39:23.270Z,1025.63
2018-03-20T18:40:32.102Z,1025.66
2018-03-20T18:41:40.933Z,1025.67
2018-03-20T18:42:49.764Z,1025.64
2018-03-20T18:43:59.150Z,1025.7
2018-03-20T18:45:08.260Z,1025.71
2018-03-20T18:46:17.091Z,1025.72
2018-03-20T18:47:25.923Z,1025.72
2018-03-20T18:48:34.753Z,1025.74
2018-03-20T18:49:43.584Z,1025.75
2018-03-20T18:50:52.698Z,1025.76
2018-03-20T18:52:01.836Z,1025.75
2018-03-20T18:53:10.668Z,1025.8
2018-03-20T18:54:19.784Z,1025.81
2018-03-20T18:55:28.614Z,1025.84
2018-03-20T18:56:37.448Z,1025.82
2018-03-20T18:57:46.427Z,1025.82
2018-03-20T18:58:55.274Z,1025.89
2018-03-20T19:00:04.433Z,1025.89
2018-03-20T19:01:13.539Z,1025.88
2018-03-20T19:02:22.653Z,1025.88
2018-03-20T19:03:31.953Z,1025.89
2018-03-20T19:04:40.784Z,1025.87
2018-03-20T19:05:50.240Z,1025.92
2018-03-20T19:06:59.072Z,1025.89
2018-03-20T19:08:08.176Z,1025.95
2018-03-20T19:09:17.107Z,1025.97
2018-03-20T19:10:25.936Z,1025.95
2018-03-20T19:11:35.044Z,1026.02
2018-03-20T19:12:43.882Z,1026.07
2018-03-20T19:13:52.710Z,1026.08
2018-03-20T19:15:01.655Z,1026.12
2018-03-20T19:16:10.487Z,1026.13
2018-03-20T19:17:19.766Z,1026.18
2018-03-20T19:18:28.595Z,1026.14
2018-03-20T19:19:37.446Z,1026.13
2018-03-20T19:20:46.537Z,1026.16
2018-03-20T19:21:55.373Z,1026.14
2018-03-20T19:23:04.202Z,1026.18
2018-03-20T19:24:13.033Z,1026.17
2018-03-20T19:25:21.862Z,1026.23
2018-03-20T19:26:31.298Z,1026.22
2018-03-20T19:27:40.432Z,1026.22
2018-03-20T19:28:49.280Z,1026.25
2018-03-20T19:29:58.112Z,1026.29
2018-03-20T19:31:07.479Z,1026.31
2018-03-20T19:32:16.569Z,1026.32
2018-03-20T19:33:25.422Z,1026.31
2018-03-20T19:34:34.252Z,1026.36
2018-03-20T19:35:43.101Z,1026.38
2018-03-20T19:36:51.933Z,1026.42
2018-03-20T19:38:01.078Z,1026.41
2018-03-20T19:39:09.911Z,1026.37
2018-03-20T19:40:18.776Z,1026.45
2018-03-20T19:41:27.649Z,1026.4
2018-03-20T19:42:36.718Z,1026.43
2018-03-20T19:43:45.851Z,1026.46
2018-03-20T19:44:54.706Z,1026.48
2018-03-20T19:46:03.539Z,1026.46
2018-03-20T19:47:12.381Z,1026.45
2018-03-20T19:48:21.209Z,1026.52
2018-03-20T19:49:30.287Z,1026.47
2018-03-20T19:50:39.115Z,1026.5
2018-03-20T19:51:47.949Z,1026.49
2018-03-20T19:52:56.776Z,1026.52
2018-03-20T19:54:05.607Z,1026.49
2018-03-20T19:55:14.887Z,1026.52
2018-03-20T19:56:23.722Z,1026.51
2018-03-20T19:57:32.932Z,1026.58
2018-03-20T19:58:41.761Z,1026.57
2018-03-20T19:59:50.603Z,1026.61
2018-03-20T20:00:59.585Z,1026.62
2018-03-20T20:02:08.417Z,1026.58
2018-03-20T20:03:17.248Z,1026.62
2018-03-20T20:04:26.090Z,1026.62
2018-03-20T20:05:35.203Z,1026.61
2018-03-20T20:06:44.133Z,1026.63
2018-03-20T20:07:52.964Z,1026.62
2018-03-20T20:09:01.830Z,1026.65
2018-03-20T20:10:10.956Z,1026.67
2018-03-20T20:11:19.787Z,1026.65
2018-03-20T20:12:29.309Z,1026.66
2018-03-20T20:13:38.143Z,1026.64
2018-03-20T20:14:46.999Z,1026.67
2018-03-20T20:15:56.116Z,1026.66
2018-03-20T20:17:04.968Z,1026.64
2018-03-20T20:18:14.122Z,1026.7
2018-03-20T20:19:22.985Z,1026.67
2018-03-20T20:20:31.901Z,1026.69
2018-03-20T20:21:41.235Z,1026.78
2018-03-20T20:22:50.098Z,1026.71
2018-03-20T20:23:59.198Z,1026.72
2018-03-20T20:25:08.113Z,1026.7
2018-03-20T20:26:16.944Z,1026.76
2018-03-20T20:27:26.346Z,1026.73
2018-03-20T20:28:35.195Z,1026.76
2018-03-20T20:29:44.024Z,1026.71
2018-03-20T20:30:52.875Z,1026.75
2018-03-20T20:32:01.724Z,1026.77
2018-03-20T20:33:11.214Z,1026.79
2018-03-20T20:34:20.066Z,1026.83
2018-03-20T20:35:29.079Z,1026.87
2018-03-20T20:36:37.924Z,1026.84
2018-03-20T20:37:46.759Z,1026.84
2018-03-20T20:38:55.592Z,1026.85
2018-03-20T20:40:04.424Z,1026.84
2018-03-20T20:41:13.254Z,1026.85
2018-03-20T20:42:22.103Z,1026.8
2018-03-20T20:43:30.952Z,1026.84
2018-03-20T20:44:39.798Z,1026.85
2018-03-20T20:45:48.627Z,1026.86
2018-03-20T20:46:57.555Z,1026.88
2018-03-20T20:48:06.387Z,1026.89
2018-03-20T20:49:15.216Z,1026.88
2018-03-20T20:50:24.045Z,1026.9
2018-03-20T20:51:33.217Z,1026.88
2018-03-20T20:52:42.055Z,1026.93
2018-03-20T20:53:51.167Z,1026.96
2018-03-20T20:55:00.011Z,1026.93
2018-03-20T20:56:08.856Z,1026.95
2018-03-20T20:57:18.015Z,1026.96
2018-03-20T20:58:27.337Z,1026.93
2018-03-20T20:59:36.171Z,1026.96
2018-03-20T21:00:45.048Z,1026.97
2018-03-20T21:01:53.881Z,1027.04
2018-03-20T21:03:02.711Z,1027.05
2018-03-20T21:04:12.120Z,1027.05
2018-03-20T21:05:20.947Z,1027.11
2018-03-20T21:06:29.777Z,1027.15
2018-03-20T21:07:38.898Z,1027.1
2018-03-20T21:08:47.740Z,1027.11
2018-03-20T21:09:56.690Z,1027.06
2018-03-20T21:11:05.565Z,1027.1
2018-03-20T21:12:14.437Z,1027.1
2018-03-20T21:13:23.624Z,1027.12
2018-03-20T21:14:32.451Z,1027.15
2018-03-20T21:15:41.434Z,1027.15
2018-03-20T21:16:50.537Z,1027.13
2018-03-20T21:17:59.377Z,1027.15
2018-03-20T21:19:08.206Z,1027.16
2018-03-20T21:20:17.042Z,1027.15
2018-03-20T21:21:25.870Z,1027.14
2018-03-20T21:22:34.711Z,1027.14
2018-03-20T21:23:43.833Z,1027.13
2018-03-20T21:24:52.662Z,1027.16
2018-03-20T21:26:01.489Z,1027.09
2018-03-20T21:27:10.325Z,1027.14
2018-03-20T21:28:19.193Z,1027.08
2018-03-20T21:29:28.022Z,1027.09
2018-03-20T21:30:36.876Z,1027.14
2018-03-20T21:31:45.704Z,1027.13
2018-03-20T21:32:54.831Z,1027.13
2018-03-20T21:34:03.697Z,1027.19
2018-03-20T21:35:12.599Z,1027.16
2018-03-20T21:36:21.434Z,1027.16
2018-03-20T21:37:30.539Z,1027.19
2018-03-20T21:38:39.517Z,1027.24
2018-03-20T21:39:48.347Z,1027.22
2018-03-20T21:40:57.176Z,1027.24
2018-03-20T21:42:06.010Z,1027.24
2018-03-20T21:43:14.839Z,1027.23
2018-03-20T21:44:23.665Z,1027.24
2018-03-20T21:45:32.498Z,1027.22
2018-03-20T21:46:41.323Z,1027.25
2018-03-20T21:47:50.198Z,1027.26
2018-03-20T21:48:58.983Z,1027.3
2018-03-20T21:50:07.862Z,1027.33
2018-03-20T21:51:16.691Z,1027.33
2018-03-20T21:52:25.518Z,1027.32
2018-03-20T21:53:34.562Z,1027.3
2018-03-20T21:54:43.408Z,1027.27
2018-03-20T21:55:52.402Z,1027.31
2018-03-20T21:57:01.256Z,1027.28
2018-03-20T21:58:10.123Z,1027.26
2018-03-20T21:59:19.246Z,1027.27
2018-03-20T22:00:28.072Z,1027.27
2018-03-20T22:01:36.951Z,1027.27
2018-03-20T22:02:45.823Z,1027.29
2018-03-20T22:03:54.747Z,1027.34
2018-03-20T22:05:03.578Z,1027.3
2018-03-20T22:06:12.404Z,1027.3
2018-03-20T22:07:21.234Z,1027.33
2018-03-20T22:08:30.063Z,1027.34
2018-03-20T22:09:38.894Z,1027.32
2018-03-20T22:10:47.721Z,1027.3
2018-03-20T22:11:56.548Z,1027.29
2018-03-20T22:13:05.954Z,1027.37
2018-03-20T22:14:14.782Z,1027.32
2018-03-20T22:15:23.663Z,1027.32
2018-03-20T22:16:32.438Z,1027.37
2018-03-20T22:17:41.547Z,1027.35
2018-03-20T22:18:50.474Z,1027.32
2018-03-20T22:19:59.300Z,1027.31
2018-03-20T22:21:08.404Z,1027.32
2018-03-20T22:22:17.234Z,1027.33
2018-03-20T22:23:26.062Z,1027.33
2018-03-20T22:24:34.990Z,1027.33
2018-03-20T22:25:43.819Z,1027.35
2018-03-20T22:26:52.648Z,1027.33
2018-03-20T22:28:01.475Z,1027.33
2018-03-20T22:29:10.303Z,1027.31
2018-03-20T22:30:19.535Z,1027.33
2018-03-20T22:31:28.369Z,1027.31
2018-03-20T22:32:37.472Z,1027.32
2018-03-20T22:33:46.301Z,1027.31
2018-03-20T22:34:55.131Z,1027.35
2018-03-20T22:36:04.236Z,1027.34
2018-03-20T22:37:13.067Z,1027.33
2018-03-20T22:38:21.891Z,1027.32
2018-03-20T22:39:30.719Z,1027.37
2018-03-20T22:40:39.546Z,1027.36
2018-03-20T22:41:48.424Z,1027.4
2018-03-20T22:42:57.254Z,1027.33
2018-03-20T22:44:06.359Z,1027.36
2018-03-20T22:45:15.466Z,1027.38
2018-03-20T22:46:24.291Z,1027.35
2018-03-20T22:47:33.268Z,1027.37
2018-03-20T22:48:42.096Z,1027.42
2018-03-20T22:49:50.974Z,1027.41
2018-03-20T22:50:59.748Z,1027.35
2018-03-20T22:52:08.573Z,1027.4
2018-03-20T22:53:17.705Z,1027.41
2018-03-20T22:54:26.531Z,1027.38
2018-03-20T22:55:35.356Z,1027.41
2018-03-20T22:56:44.185Z,1027.39
2018-03-20T22:57:53.015Z,1027.39
2018-03-20T22:59:02.393Z,1027.38
2018-03-20T23:00:11.219Z,1027.38
2018-03-20T23:01:20.047Z,1027.39
2018-03-20T23:02:28.873Z,1027.4
2018-03-20T23:03:37.699Z,1027.44
2018-03-20T23:04:46.856Z,1027.44
2018-03-20T23:05:55.682Z,1027.45
2018-03-20T23:07:04.506Z,1027.44
2018-03-20T23:08:13.335Z,1027.47
2018-03-20T23:09:22.162Z,1027.44
2018-03-20T23:10:31.039Z,1027.48
2018-03-20T23:11:39.864Z,1027.49
2018-03-20T23:12:48.693Z,1027.48
2018-03-20T23:13:57.520Z,1027.46
2018-03-20T23:15:06.359Z,1027.47
2018-03-20T23:16:15.475Z,1027.44
2018-03-20T23:17:24.300Z,1027.47
2018-03-20T23:18:33.124Z,1027.48
2018-03-20T23:19:41.956Z,1027.46
2018-03-20T23:20:50.780Z,1027.5
2018-03-20T23:21:59.656Z,1027.51
2018-03-20T23:23:08.486Z,1027.5
2018-03-20T23:24:17.311Z,1027.53
2018-03-20T23:25:26.142Z,1027.48
2018-03-20T23:26:34.965Z,1027.5
2018-03-20T23:27:43.791Z,1027.45
2018-03-20T23:28:52.619Z,1027.43
2018-03-20T23:30:01.445Z,1027.38
2018-03-20T23:31:10.271Z,1027.43
2018-03-20T23:32:19.099Z,1027.44
2018-03-20T23:33:27.925Z,1027.44
2018-03-20T23:34:37.035Z,1027.45
2018-03-20T23:35:45.858Z,1027.44
2018-03-20T23:36:54.684Z,1027.44
2018-03-20T23:38:03.515Z,1027.44
2018-03-20T23:39:13.041Z,1027.44
2018-03-20T23:40:21.866Z,1027.45
2018-03-20T23:41:30.693Z,1027.4
2018-03-20T23:42:39.520Z,1027.42
2018-03-20T23:43:48.347Z,1027.41
2018-03-20T23:44:57.423Z,1027.47
2018-03-20T23:46:06.249Z,1027.46